sensor_id;sensor_type;location;lat;lon;timestamp;P1;durP1;ratioP1;P2;durP2;ratioP2
16436;SDS011;8328;52.206;21.006;2023-07-29T00:01:54;8.43;;;6.47;;
16436;SDS011;8328;52.206;21.006;2023-07-29T00:04:20;9.57;;;7.40;;
16436;SDS011;8328;52.206;21.006;2023-07-29T00:06:47;9.20;;;7.07;;
16436;SDS011;8328;52.206;21.006;2023-07-29T00:09:13;9.63;;;7.93;;
16436;SDS011;8328;52.206;21.006;2023-07-29T00:11:40;8.83;;;7.40;;
16436;SDS011;8328;52.206;21.006;2023-07-29T00:14:06;11.47;;;8.03;;
16436;SDS011;8328;52.206;21.006;2023-07-29T00:16:31;9.07;;;7.47;;
16436;SDS011;8328;52.206;21.006;2023-07-29T00:18:58;8.03;;;7.23;;
16436;SDS011;8328;52.206;21.006;2023-07-29T00:21:23;9.37;;;8.37;;
16436;SDS011;8328;52.206;21.006;2023-07-29T00:23:49;10.57;;;8.17;;
16436;SDS011;8328;52.206;21.006;2023-07-29T00:26:15;15.43;;;9.57;;
16436;SDS011;8328;52.206;21.006;2023-07-29T00:28:42;10.60;;;8.60;;
16436;SDS011;8328;52.206;21.006;2023-07-29T00:31:10;11.07;;;8.80;;
16436;SDS011;8328;52.206;21.006;2023-07-29T00:33:35;13.47;;;10.57;;
16436;SDS011;8328;52.206;21.006;2023-07-29T00:36:01;13.57;;;11.07;;
16436;SDS011;8328;52.206;21.006;2023-07-29T00:38:28;15.97;;;11.00;;
16436;SDS011;8328;52.206;21.006;2023-07-29T00:40:54;14.13;;;11.87;;
16436;SDS011;8328;52.206;21.006;2023-07-29T00:43:22;14.13;;;11.57;;
16436;SDS011;8328;52.206;21.006;2023-07-29T00:45:47;14.00;;;12.43;;
16436;SDS011;8328;52.206;21.006;2023-07-29T00:48:14;32.03;;;12.60;;
16436;SDS011;8328;52.206;21.006;2023-07-29T00:50:40;17.70;;;13.03;;
16436;SDS011;8328;52.206;21.006;2023-07-29T00:53:06;12.23;;;10.20;;
16436;SDS011;8328;52.206;21.006;2023-07-29T00:55:32;13.87;;;12.37;;
16436;SDS011;8328;52.206;21.006;2023-07-29T00:57:59;13.63;;;12.17;;
16436;SDS011;8328;52.206;21.006;2023-07-29T01:00:25;15.77;;;13.57;;
16436;SDS011;8328;52.206;21.006;2023-07-29T01:02:52;14.90;;;12.47;;
16436;SDS011;8328;52.206;21.006;2023-07-29T01:05:19;13.70;;;11.90;;
16436;SDS011;8328;52.206;21.006;2023-07-29T01:07:53;21.43;;;14.20;;
16436;SDS011;8328;52.206;21.006;2023-07-29T01:13:50;17.73;;;12.80;;
16436;SDS011;8328;52.206;21.006;2023-07-29T01:16:34;14.03;;;11.90;;
16436;SDS011;8328;52.206;21.006;2023-07-29T01:19:07;15.37;;;12.67;;
16436;SDS011;8328;52.206;21.006;2023-07-29T01:21:54;16.13;;;12.93;;
16436;SDS011;8328;52.206;21.006;2023-07-29T01:24:21;18.17;;;13.83;;
16436;SDS011;8328;52.206;21.006;2023-07-29T01:26:47;17.87;;;12.70;;
16436;SDS011;8328;52.206;21.006;2023-07-29T01:29:13;17.27;;;12.20;;
16436;SDS011;8328;52.206;21.006;2023-07-29T01:31:41;15.03;;;12.47;;
16436;SDS011;8328;52.206;21.006;2023-07-29T01:34:13;18.33;;;12.50;;
16436;SDS011;8328;52.206;21.006;2023-07-29T01:36:48;17.70;;;12.80;;
16436;SDS011;8328;52.206;21.006;2023-07-29T01:39:16;14.60;;;12.00;;
16436;SDS011;8328;52.206;21.006;2023-07-29T01:41:47;17.23;;;12.33;;
16436;SDS011;8328;52.206;21.006;2023-07-29T01:44:13;15.23;;;12.33;;
16436;SDS011;8328;52.206;21.006;2023-07-29T01:46:40;15.33;;;11.73;;
16436;SDS011;8328;52.206;21.006;2023-07-29T01:49:05;17.03;;;12.23;;
16436;SDS011;8328;52.206;21.006;2023-07-29T01:51:32;16.17;;;11.30;;
16436;SDS011;8328;52.206;21.006;2023-07-29T01:53:58;15.40;;;11.27;;
16436;SDS011;8328;52.206;21.006;2023-07-29T01:56:24;18.13;;;14.13;;
16436;SDS011;8328;52.206;21.006;2023-07-29T01:58:50;18.57;;;12.50;;
16436;SDS011;8328;52.206;21.006;2023-07-29T02:01:16;14.90;;;11.83;;
16436;SDS011;8328;52.206;21.006;2023-07-29T02:03:43;16.57;;;12.23;;
16436;SDS011;8328;52.206;21.006;2023-07-29T02:06:10;16.87;;;12.50;;
16436;SDS011;8328;52.206;21.006;2023-07-29T02:08:35;16.37;;;12.33;;
16436;SDS011;8328;52.206;21.006;2023-07-29T02:11:05;17.20;;;13.27;;
16436;SDS011;8328;52.206;21.006;2023-07-29T02:13:31;16.53;;;12.77;;
16436;SDS011;8328;52.206;21.006;2023-07-29T02:15:57;17.57;;;12.40;;
16436;SDS011;8328;52.206;21.006;2023-07-29T02:18:23;19.70;;;13.03;;
16436;SDS011;8328;52.206;21.006;2023-07-29T02:20:50;18.90;;;13.27;;
16436;SDS011;8328;52.206;21.006;2023-07-29T02:23:16;18.30;;;13.13;;
16436;SDS011;8328;52.206;21.006;2023-07-29T02:25:42;15.77;;;12.40;;
16436;SDS011;8328;52.206;21.006;2023-07-29T02:28:08;19.33;;;12.97;;
16436;SDS011;8328;52.206;21.006;2023-07-29T02:30:34;18.07;;;12.53;;
16436;SDS011;8328;52.206;21.006;2023-07-29T02:33:00;20.57;;;12.93;;
16436;SDS011;8328;52.206;21.006;2023-07-29T02:35:27;18.70;;;13.63;;
16436;SDS011;8328;52.206;21.006;2023-07-29T02:37:53;22.90;;;13.27;;
16436;SDS011;8328;52.206;21.006;2023-07-29T02:40:19;20.47;;;13.07;;
16436;SDS011;8328;52.206;21.006;2023-07-29T02:42:47;19.40;;;13.50;;
16436;SDS011;8328;52.206;21.006;2023-07-29T02:45:13;24.43;;;14.30;;
16436;SDS011;8328;52.206;21.006;2023-07-29T02:47:38;21.27;;;13.30;;
16436;SDS011;8328;52.206;21.006;2023-07-29T02:50:04;22.20;;;13.60;;
16436;SDS011;8328;52.206;21.006;2023-07-29T02:52:30;18.60;;;12.93;;
16436;SDS011;8328;52.206;21.006;2023-07-29T02:54:56;17.20;;;13.10;;
16436;SDS011;8328;52.206;21.006;2023-07-29T02:57:22;22.17;;;14.47;;
16436;SDS011;8328;52.206;21.006;2023-07-29T02:59:48;20.60;;;13.27;;
16436;SDS011;8328;52.206;21.006;2023-07-29T03:02:14;20.90;;;13.43;;
16436;SDS011;8328;52.206;21.006;2023-07-29T03:04:41;21.90;;;14.03;;
16436;SDS011;8328;52.206;21.006;2023-07-29T03:07:07;22.77;;;14.10;;
16436;SDS011;8328;52.206;21.006;2023-07-29T03:09:33;18.43;;;13.97;;
16436;SDS011;8328;52.206;21.006;2023-07-29T03:11:59;24.53;;;15.07;;
16436;SDS011;8328;52.206;21.006;2023-07-29T03:14:25;22.97;;;14.47;;
16436;SDS011;8328;52.206;21.006;2023-07-29T03:16:51;22.60;;;15.47;;
16436;SDS011;8328;52.206;21.006;2023-07-29T03:19:17;22.47;;;14.97;;
16436;SDS011;8328;52.206;21.006;2023-07-29T03:21:43;23.00;;;14.80;;
16436;SDS011;8328;52.206;21.006;2023-07-29T03:24:09;30.20;;;15.43;;
16436;SDS011;8328;52.206;21.006;2023-07-29T03:26:35;23.87;;;15.27;;
16436;SDS011;8328;52.206;21.006;2023-07-29T03:29:01;26.40;;;16.07;;
16436;SDS011;8328;52.206;21.006;2023-07-29T03:31:27;27.07;;;14.67;;
16436;SDS011;8328;52.206;21.006;2023-07-29T03:33:52;26.00;;;16.17;;
16436;SDS011;8328;52.206;21.006;2023-07-29T03:36:18;24.37;;;14.50;;
16436;SDS011;8328;52.206;21.006;2023-07-29T03:38:45;23.37;;;15.73;;
16436;SDS011;8328;52.206;21.006;2023-07-29T03:41:10;23.80;;;13.90;;
16436;SDS011;8328;52.206;21.006;2023-07-29T03:43:36;26.50;;;13.47;;
16436;SDS011;8328;52.206;21.006;2023-07-29T03:46:02;34.40;;;13.40;;
16436;SDS011;8328;52.206;21.006;2023-07-29T03:48:28;32.50;;;12.13;;
16436;SDS011;8328;52.206;21.006;2023-07-29T03:50:54;26.50;;;13.90;;
16436;SDS011;8328;52.206;21.006;2023-07-29T03:53:20;22.90;;;12.83;;
16436;SDS011;8328;52.206;21.006;2023-07-29T03:55:46;18.33;;;13.13;;
16436;SDS011;8328;52.206;21.006;2023-07-29T03:58:12;21.60;;;11.80;;
16436;SDS011;8328;52.206;21.006;2023-07-29T04:00:38;25.87;;;13.57;;
16436;SDS011;8328;52.206;21.006;2023-07-29T04:03:04;16.50;;;12.10;;
16436;SDS011;8328;52.206;21.006;2023-07-29T04:05:30;21.43;;;12.80;;
16436;SDS011;8328;52.206;21.006;2023-07-29T04:07:55;18.27;;;13.20;;
16436;SDS011;8328;52.206;21.006;2023-07-29T04:10:21;17.63;;;12.50;;
16436;SDS011;8328;52.206;21.006;2023-07-29T04:12:47;18.60;;;13.07;;
16436;SDS011;8328;52.206;21.006;2023-07-29T04:15:13;18.27;;;11.93;;
16436;SDS011;8328;52.206;21.006;2023-07-29T04:17:39;16.73;;;12.50;;
16436;SDS011;8328;52.206;21.006;2023-07-29T04:20:04;14.43;;;11.83;;
16436;SDS011;8328;52.206;21.006;2023-07-29T04:22:31;14.17;;;12.20;;
16436;SDS011;8328;52.206;21.006;2023-07-29T04:24:56;15.40;;;12.90;;
16436;SDS011;8328;52.206;21.006;2023-07-29T04:27:22;16.20;;;12.33;;
16436;SDS011;8328;52.206;21.006;2023-07-29T04:29:50;12.77;;;11.47;;
16436;SDS011;8328;52.206;21.006;2023-07-29T04:32:15;15.57;;;12.47;;
16436;SDS011;8328;52.206;21.006;2023-07-29T04:34:41;13.67;;;12.27;;
16436;SDS011;8328;52.206;21.006;2023-07-29T04:37:07;15.10;;;12.90;;
16436;SDS011;8328;52.206;21.006;2023-07-29T04:39:35;11.80;;;10.27;;
16436;SDS011;8328;52.206;21.006;2023-07-29T04:42:01;11.13;;;10.03;;
16436;SDS011;8328;52.206;21.006;2023-07-29T04:44:27;11.63;;;10.43;;
16436;SDS011;8328;52.206;21.006;2023-07-29T04:46:54;12.33;;;10.30;;
16436;SDS011;8328;52.206;21.006;2023-07-29T04:49:20;10.73;;;9.57;;
16436;SDS011;8328;52.206;21.006;2023-07-29T04:51:46;11.50;;;10.20;;
16436;SDS011;8328;52.206;21.006;2023-07-29T04:54:12;11.27;;;10.07;;
16436;SDS011;8328;52.206;21.006;2023-07-29T04:56:37;11.90;;;10.67;;
16436;SDS011;8328;52.206;21.006;2023-07-29T04:59:03;10.63;;;9.53;;
16436;SDS011;8328;52.206;21.006;2023-07-29T05:01:29;10.27;;;9.20;;
16436;SDS011;8328;52.206;21.006;2023-07-29T05:03:55;10.70;;;9.30;;
16436;SDS011;8328;52.206;21.006;2023-07-29T05:06:21;11.83;;;9.37;;
16436;SDS011;8328;52.206;21.006;2023-07-29T05:08:47;10.97;;;9.87;;
16436;SDS011;8328;52.206;21.006;2023-07-29T05:11:13;9.70;;;8.77;;
16436;SDS011;8328;52.206;21.006;2023-07-29T05:13:39;11.73;;;10.53;;
16436;SDS011;8328;52.206;21.006;2023-07-29T05:16:05;11.53;;;10.13;;
16436;SDS011;8328;52.206;21.006;2023-07-29T05:18:31;12.73;;;10.73;;
16436;SDS011;8328;52.206;21.006;2023-07-29T05:20:57;12.00;;;10.17;;
16436;SDS011;8328;52.206;21.006;2023-07-29T05:23:23;12.33;;;10.03;;
16436;SDS011;8328;52.206;21.006;2023-07-29T05:25:49;13.10;;;10.37;;
16436;SDS011;8328;52.206;21.006;2023-07-29T05:28:15;11.13;;;10.13;;
16436;SDS011;8328;52.206;21.006;2023-07-29T05:30:43;11.97;;;10.40;;
16436;SDS011;8328;52.206;21.006;2023-07-29T05:33:09;10.93;;;9.67;;
16436;SDS011;8328;52.206;21.006;2023-07-29T05:35:34;12.27;;;11.07;;
16436;SDS011;8328;52.206;21.006;2023-07-29T05:38:00;11.63;;;10.43;;
16436;SDS011;8328;52.206;21.006;2023-07-29T05:40:26;11.13;;;10.10;;
16436;SDS011;8328;52.206;21.006;2023-07-29T05:42:52;11.47;;;10.37;;
16436;SDS011;8328;52.206;21.006;2023-07-29T05:45:18;11.93;;;10.83;;
16436;SDS011;8328;52.206;21.006;2023-07-29T05:47:44;12.47;;;11.27;;
16436;SDS011;8328;52.206;21.006;2023-07-29T05:50:09;13.70;;;12.40;;
16436;SDS011;8328;52.206;21.006;2023-07-29T05:52:36;12.27;;;11.07;;
16436;SDS011;8328;52.206;21.006;2023-07-29T05:55:02;12.30;;;11.10;;
16436;SDS011;8328;52.206;21.006;2023-07-29T05:57:28;12.13;;;11.00;;
16436;SDS011;8328;52.206;21.006;2023-07-29T05:59:54;13.17;;;11.93;;
16436;SDS011;8328;52.206;21.006;2023-07-29T06:02:20;18.13;;;16.40;;
16436;SDS011;8328;52.206;21.006;2023-07-29T06:04:45;12.10;;;10.90;;
16436;SDS011;8328;52.206;21.006;2023-07-29T06:07:11;11.03;;;9.93;;
16436;SDS011;8328;52.206;21.006;2023-07-29T06:09:37;10.73;;;9.73;;
16436;SDS011;8328;52.206;21.006;2023-07-29T06:12:03;12.80;;;11.57;;
16436;SDS011;8328;52.206;21.006;2023-07-29T06:14:29;13.70;;;12.33;;
16436;SDS011;8328;52.206;21.006;2023-07-29T06:16:54;11.90;;;10.47;;
16436;SDS011;8328;52.206;21.006;2023-07-29T06:19:20;10.37;;;9.47;;
16436;SDS011;8328;52.206;21.006;2023-07-29T06:21:46;11.03;;;10.03;;
16436;SDS011;8328;52.206;21.006;2023-07-29T06:24:13;13.30;;;12.10;;
16436;SDS011;8328;52.206;21.006;2023-07-29T06:26:39;14.33;;;13.03;;
16436;SDS011;8328;52.206;21.006;2023-07-29T06:29:04;13.17;;;11.97;;
16436;SDS011;8328;52.206;21.006;2023-07-29T06:31:30;13.50;;;12.20;;
16436;SDS011;8328;52.206;21.006;2023-07-29T06:33:57;12.43;;;11.17;;
16436;SDS011;8328;52.206;21.006;2023-07-29T06:36:23;12.83;;;11.63;;
16436;SDS011;8328;52.206;21.006;2023-07-29T06:38:49;14.43;;;12.90;;
16436;SDS011;8328;52.206;21.006;2023-07-29T06:41:15;13.07;;;11.87;;
16436;SDS011;8328;52.206;21.006;2023-07-29T06:43:41;13.10;;;11.90;;
16436;SDS011;8328;52.206;21.006;2023-07-29T06:46:07;14.43;;;13.00;;
16436;SDS011;8328;52.206;21.006;2023-07-29T06:48:33;13.43;;;12.00;;
16436;SDS011;8328;52.206;21.006;2023-07-29T06:50:59;12.93;;;11.73;;
16436;SDS011;8328;52.206;21.006;2023-07-29T06:53:28;12.53;;;11.37;;
16436;SDS011;8328;52.206;21.006;2023-07-29T06:55:54;12.73;;;11.63;;
16436;SDS011;8328;52.206;21.006;2023-07-29T06:58:20;12.03;;;10.93;;
16436;SDS011;8328;52.206;21.006;2023-07-29T07:00:47;13.93;;;12.63;;
16436;SDS011;8328;52.206;21.006;2023-07-29T07:03:12;14.13;;;12.83;;
16436;SDS011;8328;52.206;21.006;2023-07-29T07:05:39;14.37;;;13.07;;
16436;SDS011;8328;52.206;21.006;2023-07-29T07:08:04;13.80;;;12.43;;
16436;SDS011;8328;52.206;21.006;2023-07-29T07:10:30;15.00;;;13.50;;
16436;SDS011;8328;52.206;21.006;2023-07-29T07:12:58;13.33;;;12.07;;
16436;SDS011;8328;52.206;21.006;2023-07-29T07:15:24;13.83;;;12.43;;
16436;SDS011;8328;52.206;21.006;2023-07-29T07:17:51;14.67;;;13.27;;
16436;SDS011;8328;52.206;21.006;2023-07-29T07:20:17;14.37;;;12.97;;
16436;SDS011;8328;52.206;21.006;2023-07-29T07:22:43;14.93;;;13.43;;
16436;SDS011;8328;52.206;21.006;2023-07-29T07:25:09;14.57;;;13.17;;
16436;SDS011;8328;52.206;21.006;2023-07-29T07:27:34;12.90;;;11.70;;
16436;SDS011;8328;52.206;21.006;2023-07-29T07:30:02;12.50;;;11.40;;
16436;SDS011;8328;52.206;21.006;2023-07-29T07:32:28;12.07;;;10.97;;
16436;SDS011;8328;52.206;21.006;2023-07-29T07:34:54;10.77;;;9.77;;
16436;SDS011;8328;52.206;21.006;2023-07-29T07:37:20;10.30;;;9.40;;
16436;SDS011;8328;52.206;21.006;2023-07-29T07:39:46;9.43;;;8.53;;
16436;SDS011;8328;52.206;21.006;2023-07-29T07:42:11;10.00;;;8.47;;
16436;SDS011;8328;52.206;21.006;2023-07-29T07:44:37;10.43;;;9.47;;
16436;SDS011;8328;52.206;21.006;2023-07-29T07:47:03;10.30;;;9.30;;
16436;SDS011;8328;52.206;21.006;2023-07-29T07:49:29;9.63;;;8.57;;
16436;SDS011;8328;52.206;21.006;2023-07-29T07:51:55;10.70;;;9.70;;
16436;SDS011;8328;52.206;21.006;2023-07-29T07:54:21;10.33;;;9.33;;
16436;SDS011;8328;52.206;21.006;2023-07-29T07:56:46;9.27;;;8.37;;
16436;SDS011;8328;52.206;21.006;2023-07-29T07:59:12;9.33;;;8.33;;
16436;SDS011;8328;52.206;21.006;2023-07-29T08:01:38;10.93;;;7.63;;
16436;SDS011;8328;52.206;21.006;2023-07-29T08:04:04;8.47;;;7.67;;
16436;SDS011;8328;52.206;21.006;2023-07-29T08:06:31;9.60;;;6.60;;
16436;SDS011;8328;52.206;21.006;2023-07-29T08:08:57;7.47;;;6.83;;
16436;SDS011;8328;52.206;21.006;2023-07-29T08:11:23;7.27;;;6.67;;
16436;SDS011;8328;52.206;21.006;2023-07-29T08:13:49;7.77;;;6.57;;
16436;SDS011;8328;52.206;21.006;2023-07-29T08:16:15;6.53;;;5.90;;
16436;SDS011;8328;52.206;21.006;2023-07-29T08:18:41;6.43;;;5.80;;
16436;SDS011;8328;52.206;21.006;2023-07-29T08:21:07;6.37;;;5.87;;
16436;SDS011;8328;52.206;21.006;2023-07-29T08:23:33;5.87;;;5.37;;
16436;SDS011;8328;52.206;21.006;2023-07-29T08:26:01;5.57;;;4.83;;
16436;SDS011;8328;52.206;21.006;2023-07-29T08:28:30;5.27;;;4.77;;
16436;SDS011;8328;52.206;21.006;2023-07-29T08:31:03;4.40;;;4.00;;
16436;SDS011;8328;52.206;21.006;2023-07-29T08:33:30;4.97;;;4.30;;
16436;SDS011;8328;52.206;21.006;2023-07-29T08:35:58;5.40;;;4.60;;
16436;SDS011;8328;52.206;21.006;2023-07-29T08:38:24;3.97;;;3.67;;
16436;SDS011;8328;52.206;21.006;2023-07-29T08:41:10;3.90;;;3.37;;
16436;SDS011;8328;52.206;21.006;2023-07-29T08:43:52;4.43;;;4.00;;
16436;SDS011;8328;52.206;21.006;2023-07-29T08:46:24;3.47;;;3.17;;
16436;SDS011;8328;52.206;21.006;2023-07-29T08:48:50;3.77;;;3.47;;
16436;SDS011;8328;52.206;21.006;2023-07-29T08:51:16;4.50;;;4.10;;
16436;SDS011;8328;52.206;21.006;2023-07-29T08:53:44;4.43;;;4.07;;
16436;SDS011;8328;52.206;21.006;2023-07-29T08:56:10;4.13;;;3.60;;
16436;SDS011;8328;52.206;21.006;2023-07-29T08:58:36;3.97;;;3.57;;
16436;SDS011;8328;52.206;21.006;2023-07-29T09:01:02;3.43;;;3.13;;
16436;SDS011;8328;52.206;21.006;2023-07-29T09:03:28;2.57;;;2.37;;
16436;SDS011;8328;52.206;21.006;2023-07-29T09:05:54;3.00;;;2.80;;
16436;SDS011;8328;52.206;21.006;2023-07-29T09:08:22;2.90;;;2.33;;
16436;SDS011;8328;52.206;21.006;2023-07-29T09:10:49;3.03;;;2.73;;
16436;SDS011;8328;52.206;21.006;2023-07-29T09:13:14;2.53;;;2.33;;
16436;SDS011;8328;52.206;21.006;2023-07-29T09:15:40;3.13;;;2.83;;
16436;SDS011;8328;52.206;21.006;2023-07-29T09:18:10;3.20;;;3.00;;
16436;SDS011;8328;52.206;21.006;2023-07-29T09:20:48;3.63;;;3.03;;
16436;SDS011;8328;52.206;21.006;2023-07-29T09:23:20;3.90;;;2.73;;
16436;SDS011;8328;52.206;21.006;2023-07-29T09:25:47;3.53;;;3.23;;
16436;SDS011;8328;52.206;21.006;2023-07-29T09:28:14;3.47;;;3.03;;
16436;SDS011;8328;52.206;21.006;2023-07-29T09:30:46;3.23;;;2.77;;
16436;SDS011;8328;52.206;21.006;2023-07-29T09:33:12;3.97;;;3.57;;
16436;SDS011;8328;52.206;21.006;2023-07-29T09:35:43;3.20;;;2.47;;
16436;SDS011;8328;52.206;21.006;2023-07-29T09:38:13;3.10;;;2.40;;
16436;SDS011;8328;52.206;21.006;2023-07-29T09:40:41;3.00;;;2.70;;
16436;SDS011;8328;52.206;21.006;2023-07-29T09:43:08;2.53;;;2.33;;
16436;SDS011;8328;52.206;21.006;2023-07-29T09:45:34;2.40;;;2.20;;
16436;SDS011;8328;52.206;21.006;2023-07-29T09:48:01;3.53;;;2.00;;
16436;SDS011;8328;52.206;21.006;2023-07-29T09:50:28;2.70;;;2.50;;
16436;SDS011;8328;52.206;21.006;2023-07-29T09:52:55;13.67;;;8.07;;
16436;SDS011;8328;52.206;21.006;2023-07-29T09:55:24;2.30;;;2.10;;
16436;SDS011;8328;52.206;21.006;2023-07-29T09:57:57;3.00;;;2.20;;
16436;SDS011;8328;52.206;21.006;2023-07-29T10:00:29;2.10;;;2.00;;
16436;SDS011;8328;52.206;21.006;2023-07-29T10:02:56;2.20;;;2.07;;
16436;SDS011;8328;52.206;21.006;2023-07-29T10:05:25;2.20;;;2.10;;
16436;SDS011;8328;52.206;21.006;2023-07-29T10:07:51;2.93;;;2.17;;
16436;SDS011;8328;52.206;21.006;2023-07-29T10:10:18;2.30;;;2.10;;
16436;SDS011;8328;52.206;21.006;2023-07-29T10:12:45;2.10;;;2.00;;
16436;SDS011;8328;52.206;21.006;2023-07-29T10:15:11;3.50;;;3.20;;
16436;SDS011;8328;52.206;21.006;2023-07-29T10:17:38;2.33;;;2.00;;
16436;SDS011;8328;52.206;21.006;2023-07-29T10:20:05;2.00;;;1.80;;
16436;SDS011;8328;52.206;21.006;2023-07-29T10:22:33;2.77;;;1.83;;
16436;SDS011;8328;52.206;21.006;2023-07-29T10:25:07;2.00;;;1.87;;
16436;SDS011;8328;52.206;21.006;2023-07-29T10:27:40;1.90;;;1.80;;
16436;SDS011;8328;52.206;21.006;2023-07-29T10:30:16;2.30;;;2.10;;
16436;SDS011;8328;52.206;21.006;2023-07-29T10:32:43;1.83;;;1.73;;
16436;SDS011;8328;52.206;21.006;2023-07-29T10:35:10;2.17;;;1.97;;
16436;SDS011;8328;52.206;21.006;2023-07-29T10:37:39;2.27;;;2.07;;
16436;SDS011;8328;52.206;21.006;2023-07-29T10:40:06;3.37;;;2.00;;
16436;SDS011;8328;52.206;21.006;2023-07-29T10:42:33;1.83;;;1.73;;
16436;SDS011;8328;52.206;21.006;2023-07-29T10:45:00;2.70;;;1.87;;
16436;SDS011;8328;52.206;21.006;2023-07-29T10:47:42;2.33;;;2.13;;
16436;SDS011;8328;52.206;21.006;2023-07-29T10:50:16;2.00;;;1.90;;
16436;SDS011;8328;52.206;21.006;2023-07-29T10:52:49;2.00;;;1.80;;
16436;SDS011;8328;52.206;21.006;2023-07-29T10:55:24;2.30;;;2.10;;
16436;SDS011;8328;52.206;21.006;2023-07-29T10:57:50;2.00;;;1.90;;
16436;SDS011;8328;52.206;21.006;2023-07-29T11:00:18;2.97;;;1.90;;
16436;SDS011;8328;52.206;21.006;2023-07-29T11:02:56;2.20;;;2.00;;
16436;SDS011;8328;52.206;21.006;2023-07-29T11:05:26;2.47;;;1.90;;
16436;SDS011;8328;52.206;21.006;2023-07-29T11:07:52;1.90;;;1.70;;
16436;SDS011;8328;52.206;21.006;2023-07-29T11:10:17;1.90;;;1.77;;
16436;SDS011;8328;52.206;21.006;2023-07-29T11:15:13;1.73;;;1.63;;
16436;SDS011;8328;52.206;21.006;2023-07-29T11:17:44;2.07;;;1.97;;
16436;SDS011;8328;52.206;21.006;2023-07-29T11:20:13;2.17;;;1.97;;
16436;SDS011;8328;52.206;21.006;2023-07-29T11:22:40;1.87;;;1.70;;
16436;SDS011;8328;52.206;21.006;2023-07-29T11:25:09;2.67;;;2.00;;
16436;SDS011;8328;52.206;21.006;2023-07-29T11:27:37;2.47;;;2.10;;
16436;SDS011;8328;52.206;21.006;2023-07-29T11:30:05;1.70;;;1.60;;
16436;SDS011;8328;52.206;21.006;2023-07-29T11:32:33;2.10;;;1.90;;
16436;SDS011;8328;52.206;21.006;2023-07-29T11:35:03;2.63;;;1.70;;
16436;SDS011;8328;52.206;21.006;2023-07-29T11:37:30;1.93;;;1.70;;
16436;SDS011;8328;52.206;21.006;2023-07-29T11:39:59;2.07;;;1.87;;
16436;SDS011;8328;52.206;21.006;2023-07-29T11:42:25;2.93;;;1.77;;
16436;SDS011;8328;52.206;21.006;2023-07-29T11:44:51;1.83;;;1.73;;
16436;SDS011;8328;52.206;21.006;2023-07-29T11:47:17;2.00;;;1.90;;
16436;SDS011;8328;52.206;21.006;2023-07-29T11:49:43;1.80;;;1.70;;
16436;SDS011;8328;52.206;21.006;2023-07-29T11:52:09;2.03;;;1.90;;
16436;SDS011;8328;52.206;21.006;2023-07-29T11:54:37;2.10;;;1.90;;
16436;SDS011;8328;52.206;21.006;2023-07-29T11:57:04;1.90;;;1.80;;
16436;SDS011;8328;52.206;21.006;2023-07-29T11:59:36;2.50;;;2.30;;
16436;SDS011;8328;52.206;21.006;2023-07-29T12:02:05;2.43;;;2.17;;
16436;SDS011;8328;52.206;21.006;2023-07-29T12:04:36;2.40;;;1.80;;
16436;SDS011;8328;52.206;21.006;2023-07-29T12:07:03;2.07;;;1.97;;
16436;SDS011;8328;52.206;21.006;2023-07-29T12:09:29;1.60;;;1.50;;
16436;SDS011;8328;52.206;21.006;2023-07-29T12:11:56;1.80;;;1.70;;
16436;SDS011;8328;52.206;21.006;2023-07-29T12:14:25;2.80;;;1.77;;
16436;SDS011;8328;52.206;21.006;2023-07-29T12:16:54;1.90;;;1.80;;
16436;SDS011;8328;52.206;21.006;2023-07-29T12:19:20;2.00;;;1.70;;
16436;SDS011;8328;52.206;21.006;2023-07-29T12:21:47;1.87;;;1.77;;
16436;SDS011;8328;52.206;21.006;2023-07-29T12:24:14;1.93;;;1.83;;
16436;SDS011;8328;52.206;21.006;2023-07-29T12:26:41;1.80;;;1.70;;
16436;SDS011;8328;52.206;21.006;2023-07-29T12:29:13;4.20;;;1.70;;
16436;SDS011;8328;52.206;21.006;2023-07-29T12:31:41;2.50;;;2.30;;
16436;SDS011;8328;52.206;21.006;2023-07-29T12:34:07;1.83;;;1.73;;
16436;SDS011;8328;52.206;21.006;2023-07-29T12:36:44;3.00;;;2.07;;
16436;SDS011;8328;52.206;21.006;2023-07-29T12:39:21;2.10;;;2.00;;
16436;SDS011;8328;52.206;21.006;2023-07-29T12:41:56;2.40;;;1.80;;
16436;SDS011;8328;52.206;21.006;2023-07-29T12:44:29;2.30;;;2.10;;
16436;SDS011;8328;52.206;21.006;2023-07-29T12:46:56;2.60;;;2.40;;
16436;SDS011;8328;52.206;21.006;2023-07-29T12:49:22;2.83;;;2.13;;
16436;SDS011;8328;52.206;21.006;2023-07-29T12:51:48;4.47;;;2.10;;
16436;SDS011;8328;52.206;21.006;2023-07-29T12:54:14;2.10;;;2.00;;
16436;SDS011;8328;52.206;21.006;2023-07-29T12:56:39;2.20;;;2.00;;
16436;SDS011;8328;52.206;21.006;2023-07-29T12:59:05;2.40;;;2.20;;
16436;SDS011;8328;52.206;21.006;2023-07-29T13:01:31;1.88;;;1.77;;
16436;SDS011;8328;52.206;21.006;2023-07-29T13:03:57;1.80;;;1.70;;
16436;SDS011;8328;52.206;21.006;2023-07-29T13:06:23;4.15;;;1.92;;
16436;SDS011;8328;52.206;21.006;2023-07-29T13:08:49;1.80;;;1.70;;
16436;SDS011;8328;52.206;21.006;2023-07-29T13:11:15;1.85;;;1.75;;
16436;SDS011;8328;52.206;21.006;2023-07-29T13:13:41;1.90;;;1.70;;
16436;SDS011;8328;52.206;21.006;2023-07-29T13:16:07;2.10;;;1.90;;
16436;SDS011;8328;52.206;21.006;2023-07-29T13:18:33;1.95;;;1.85;;
16436;SDS011;8328;52.206;21.006;2023-07-29T13:21:00;1.70;;;1.60;;
16436;SDS011;8328;52.206;21.006;2023-07-29T13:23:26;1.98;;;1.80;;
16436;SDS011;8328;52.206;21.006;2023-07-29T13:25:52;1.77;;;1.67;;
16436;SDS011;8328;52.206;21.006;2023-07-29T13:28:18;1.90;;;1.80;;
16436;SDS011;8328;52.206;21.006;2023-07-29T13:30:44;2.38;;;1.55;;
16436;SDS011;8328;52.206;21.006;2023-07-29T13:33:10;2.20;;;2.00;;
16436;SDS011;8328;52.206;21.006;2023-07-29T13:35:36;2.08;;;1.98;;
16436;SDS011;8328;52.206;21.006;2023-07-29T13:38:02;2.20;;;2.00;;
16436;SDS011;8328;52.206;21.006;2023-07-29T13:40:28;1.92;;;1.65;;
16436;SDS011;8328;52.206;21.006;2023-07-29T13:42:54;1.80;;;1.70;;
16436;SDS011;8328;52.206;21.006;2023-07-29T13:45:21;1.70;;;1.60;;
16436;SDS011;8328;52.206;21.006;2023-07-29T13:47:47;2.35;;;1.65;;
16436;SDS011;8328;52.206;21.006;2023-07-29T13:50:19;2.72;;;1.92;;
16436;SDS011;8328;52.206;21.006;2023-07-29T13:52:45;1.98;;;1.77;;
16436;SDS011;8328;52.206;21.006;2023-07-29T13:55:10;2.70;;;2.50;;
16436;SDS011;8328;52.206;21.006;2023-07-29T13:57:37;2.22;;;2.03;;
16436;SDS011;8328;52.206;21.006;2023-07-29T14:00:05;2.03;;;1.90;;
16436;SDS011;8328;52.206;21.006;2023-07-29T14:02:32;2.10;;;2.00;;
16436;SDS011;8328;52.206;21.006;2023-07-29T14:04:57;1.92;;;1.80;;
16436;SDS011;8328;52.206;21.006;2023-07-29T14:07:23;1.90;;;1.80;;
16436;SDS011;8328;52.206;21.006;2023-07-29T14:09:49;2.10;;;1.90;;
16436;SDS011;8328;52.206;21.006;2023-07-29T14:12:16;2.00;;;1.90;;
16436;SDS011;8328;52.206;21.006;2023-07-29T14:14:42;2.20;;;2.10;;
16436;SDS011;8328;52.206;21.006;2023-07-29T14:17:08;2.20;;;2.00;;
16436;SDS011;8328;52.206;21.006;2023-07-29T14:19:35;2.10;;;1.90;;
16436;SDS011;8328;52.206;21.006;2023-07-29T14:22:01;2.72;;;1.83;;
16436;SDS011;8328;52.206;21.006;2023-07-29T14:24:26;2.10;;;1.90;;
16436;SDS011;8328;52.206;21.006;2023-07-29T14:26:52;2.90;;;2.70;;
16436;SDS011;8328;52.206;21.006;2023-07-29T14:29:18;1.98;;;1.88;;
16436;SDS011;8328;52.206;21.006;2023-07-29T14:31:44;2.35;;;2.25;;
16436;SDS011;8328;52.206;21.006;2023-07-29T14:34:09;2.30;;;2.20;;
16436;SDS011;8328;52.206;21.006;2023-07-29T14:36:35;3.10;;;2.90;;
16436;SDS011;8328;52.206;21.006;2023-07-29T14:39:01;2.28;;;2.17;;
16436;SDS011;8328;52.206;21.006;2023-07-29T14:41:27;3.05;;;2.85;;